Country
Station

 

Weather  for  The Dalles, The Dalles Municipal Airport  -  United States    United States

  
13 °C (55 °F)
    
 
 

Current METAR for The Dalles, The Dalles Municipal Airport is :

KDLS 200653Z AUTO 31010KT 10SM BKN070 OVC085 13/09 A2988 RMK AO2 SLP118 T01330089

 

This is a report for The Dalles, The Dalles Municipal Airport - United States.
 
The report was made 24 minutes ago, at 06:53 UTC .
The wind was blowing at a speed of 5.1 meters per second (11.5 miles per hour) from northwest (310°).
 
The temperature was 13 °C (55 °F), with a dew-point at 9 °C (48 °F).
The atmospheric pressure was 1012 hPa (29.88 inHg).
The relative humidity was 76.7%.
 
There were broken clouds at a height of 2134 meters (7000 feet). The sky was overcast from a height of 2591 meter (8500 feet)
 
The overall visibility was 16.1 kilometers (10.0 miles).
 

 
 
 
 

Country :   A   B   C   D   E   F   G   H   I   J   K   L   M   N   O   P   Q   R   S   T   U   V   W   Y   Z

 

Site Info  |  Disclaimer  |  Credits  |  Privacy
Contact us  |  Add to favorites
© 2013-2019 METARs - All rights reserved